»·PEaware :: N2494V KBUR-KSBP

N2494V :: KBUR-KSBP

FLIGHT INFORMATION

Flight Status: Arrived
Operator: Privately registered:
United States
More flights under this callsign
Pilot: Sally S. (18014)
Aircraft: Unknown
(DA62)
More flights by this aircraft type
Origin: KBUR Bob Hope-Burbank
United States
Destination: KSBP San Luis Co Regl
United States
More flights between these airports :: More routes between these airports
Route: +FIM FLW
File this flight plan on PilotEdge
Remarks:
Altitude:
(Current/Filed)
10,500ft
Speed:
(Current/Filed)
163kts
Departed: 15-Apr-18 05:36 PM
Arrived: 15-Apr-18 06:30 PM
Distance/Time
Traveled:
128nm/0:54
Distance/Time
To Go:
Arrived

Flight Plot

Page will automatically refresh every two minutes.

Flight plan parsing failed; only flown route is shown


Map Options




Map Legend


Flown Route
Filed Route
Departure Airport
Arrival Airport
Navaid (VOR, NDB)
Fix

Horizontal Profiles

Position Reports

Time Latitude Longitude Heading Altitude Ground
Speed
15-Apr-18 16:47 34.200027 -118.358690 263 780ft 0kts
15-Apr-18 16:48 34.200027 -118.358690 263 780ft 0kts
15-Apr-18 16:49 34.200027 -118.358690 263 780ft 0kts
15-Apr-18 16:50 34.200027 -118.358690 263 780ft 0kts
15-Apr-18 16:51 34.200027 -118.358690 263 780ft 0kts
15-Apr-18 16:52 34.200027 -118.358690 263 780ft 0kts
15-Apr-18 16:53 34.200027 -118.358690 263 780ft 0kts
15-Apr-18 16:54 34.200027 -118.358690 263 780ft 0kts
15-Apr-18 16:55 34.200027 -118.358690 263 780ft 0kts
15-Apr-18 16:56 34.200027 -118.358690 263 780ft 0kts
15-Apr-18 16:57 34.200027 -118.358690 263 780ft 0kts
15-Apr-18 16:58 34.200027 -118.358690 263 780ft 0kts
15-Apr-18 16:59 34.200027 -118.358690 263 780ft 0kts
15-Apr-18 17:00 34.200027 -118.358690 263 780ft 0kts
15-Apr-18 17:01 34.200027 -118.358690 263 780ft 0kts
15-Apr-18 17:02 34.200027 -118.358690 263 780ft 0kts
15-Apr-18 17:03 34.200027 -118.358690 263 780ft 0kts
15-Apr-18 17:04 34.200027 -118.358690 263 780ft 0kts
15-Apr-18 17:05 34.200027 -118.358690 263 780ft 0kts
15-Apr-18 17:06 34.200027 -118.358690 263 780ft 0kts
15-Apr-18 17:07 34.200027 -118.358690 263 780ft 0kts
15-Apr-18 17:08 34.200027 -118.358690 263 780ft 0kts
15-Apr-18 17:09 34.200027 -118.358690 263 780ft 0kts
15-Apr-18 17:10 34.200027 -118.358690 263 780ft 0kts
15-Apr-18 17:11 34.200027 -118.358690 263 780ft 0kts
15-Apr-18 17:12 34.200027 -118.358690 263 780ft 0kts
15-Apr-18 17:13 34.200027 -118.358690 263 780ft 0kts
15-Apr-18 17:14 34.200027 -118.358690 263 780ft 0kts
15-Apr-18 17:15 34.200027 -118.358690 263 780ft 0kts
15-Apr-18 17:16 34.200027 -118.358690 263 780ft 0kts
15-Apr-18 17:17 34.200027 -118.358690 263 780ft 0kts
15-Apr-18 17:18 34.200027 -118.358690 263 780ft 0kts
15-Apr-18 17:19 34.200027 -118.358690 263 780ft 0kts
15-Apr-18 17:20 34.200027 -118.358690 263 780ft 0kts
15-Apr-18 17:21 34.200027 -118.358690 263 780ft 0kts
15-Apr-18 17:22 34.200027 -118.358690 263 780ft 0kts
15-Apr-18 17:23 34.200027 -118.358690 263 780ft 0kts
15-Apr-18 17:24 34.200027 -118.358690 263 780ft 0kts
15-Apr-18 17:25 34.200027 -118.358690 263 780ft 0kts
15-Apr-18 17:26 34.200027 -118.358690 263 780ft 0kts
15-Apr-18 17:27 34.200027 -118.358690 263 780ft 0kts
15-Apr-18 17:28 34.200027 -118.358690 263 780ft 0kts
15-Apr-18 17:29 34.200027 -118.358690 263 780ft 0kts
15-Apr-18 17:30 34.200027 -118.358690 263 780ft 0kts
15-Apr-18 17:31 34.199438 -118.359672 270 780ft 11kts
15-Apr-18 17:32 34.198934 -118.363521 270 780ft 12kts
15-Apr-18 17:33 34.199107 -118.367980 262 780ft 12kts
15-Apr-18 17:34 34.198716 -118.368944 174 780ft 0kts
15-Apr-18 17:35 34.198389 -118.353963 92 989ft 103kts
15-Apr-18 17:36 34.211726 -118.363768 286 2362ft 105kts
15-Apr-18 17:37 34.222727 -118.395651 289 3647ft 105kts
15-Apr-18 17:38 34.240541 -118.428074 307 4531ft 125kts
15-Apr-18 17:39 34.265531 -118.457733 311 5513ft 127kts
15-Apr-18 17:40 34.291493 -118.486963 311 6484ft 129kts
15-Apr-18 17:41 34.317218 -118.517029 305 7449ft 128kts
15-Apr-18 17:42 34.341479 -118.548763 305 8409ft 129kts
15-Apr-18 17:43 34.366379 -118.580698 305 9221ft 138kts
15-Apr-18 17:44 34.392543 -118.614597 297 10021ft 135kts
15-Apr-18 17:45 34.413709 -118.652701 296 10528ft 150kts
15-Apr-18 17:46 34.438800 -118.696768 297 10525ft 166kts
15-Apr-18 17:47 34.465339 -118.743410 298 10521ft 168kts
15-Apr-18 17:48 34.491813 -118.790030 298 10519ft 167kts
15-Apr-18 17:49 34.518021 -118.836333 298 10518ft 166kts
15-Apr-18 17:50 34.543822 -118.881973 297 10518ft 165kts
15-Apr-18 17:51 34.569799 -118.927907 297 10519ft 165kts
15-Apr-18 17:52 34.595633 -118.973650 297 10511ft 164kts
15-Apr-18 17:53 34.621368 -119.019264 297 10509ft 163kts
15-Apr-18 17:54 34.646990 -119.064743 297 10509ft 163kts
15-Apr-18 17:55 34.672512 -119.110113 297 10508ft 162kts
15-Apr-18 17:56 34.697982 -119.155433 297 10508ft 162kts
15-Apr-18 17:57 34.723393 -119.200718 297 10507ft 162kts
15-Apr-18 17:58 34.748751 -119.245953 297 10493ft 162kts
15-Apr-18 17:59 34.774185 -119.291397 297 10479ft 162kts
15-Apr-18 18:00 34.799548 -119.336758 297 10471ft 163kts
15-Apr-18 18:01 34.825156 -119.382579 297 10469ft 164kts
15-Apr-18 18:02 34.849421 -119.429364 286 10474ft 161kts
15-Apr-18 18:03 34.866208 -119.480258 284 10484ft 162kts
15-Apr-18 18:04 34.882588 -119.530664 285 10496ft 159kts
15-Apr-18 18:05 34.898957 -119.581064 285 10449ft 160kts
15-Apr-18 18:06 34.915264 -119.631382 285 10451ft 159kts
15-Apr-18 18:07 34.931467 -119.681498 285 10462ft 160kts
15-Apr-18 18:08 34.947899 -119.732102 285 10473ft 160kts
15-Apr-18 18:09 34.964299 -119.782670 285 10484ft 161kts
15-Apr-18 18:10 34.977995 -119.825188 285 10484ft 161kts
15-Apr-18 18:11 34.994372 -119.876147 284 10484ft 162kts
15-Apr-18 18:12 35.011220 -119.928778 285 10103ft 173kts
15-Apr-18 18:13 35.028811 -119.983636 285 9316ft 172kts
15-Apr-18 18:14 35.045772 -120.036630 286 8520ft 165kts
15-Apr-18 18:15 35.062206 -120.088173 286 7725ft 161kts
15-Apr-18 18:16 35.080956 -120.147089 287 6794ft 158kts
15-Apr-18 18:17 35.094136 -120.188556 288 6124ft 156kts
15-Apr-18 18:18 35.109591 -120.237240 289 5326ft 154kts
15-Apr-18 18:19 35.124952 -120.285717 290 4548ft 151kts
15-Apr-18 18:20 35.138766 -120.329370 290 4505ft 130kts
15-Apr-18 18:21 35.152297 -120.372225 291 4505ft 138kts
15-Apr-18 18:22 35.166286 -120.416552 291 4503ft 140kts
15-Apr-18 18:23 35.180448 -120.461519 292 4459ft 144kts
15-Apr-18 18:24 35.194779 -120.507058 293 3697ft 139kts
15-Apr-18 18:25 35.204275 -120.549393 282 2511ft 133kts
15-Apr-18 18:26 35.210027 -120.586799 291 1341ft 104kts
15-Apr-18 18:27 35.222231 -120.614027 304 673ft 86kts
15-Apr-18 18:28 35.234791 -120.636322 303 215ft 47kts
15-Apr-18 18:29 35.237578 -120.638125 58 215ft 13kts
15-Apr-18 18:30 35.238056 -120.637725 274 215ft 0kts
15-Apr-18 18:31 35.238057 -120.637733 277 215ft 0kts
15-Apr-18 18:32 35.238057 -120.637733 277 215ft 0kts
15-Apr-18 18:33 35.238057 -120.637733 277 215ft 0kts

Navigation Log

Ident Type
Flight plan parsing failed, navigation log unavailable